Terminal Aerodrome Forecast
Issued by NWS

Home | Current Version | Previous Version | Text Only | Print | Product List | Glossary On
Versions: 1 2 3 4 5 6 7 8 9 10 11 12 13 14 15 16 17
000
FTUS46 KSEW 020500
TAFOLM
TAF
KOLM 020524Z 0206/0306 28003KT P6SM -RA SCT025 BKN050 OVC080
     FM020700 VRB03KT P6SM -RA BKN025 OVC040
     FM020900 00000KT P6SM OVC020
     FM021500 36003KT P6SM BKN020 OVC040
     FM022000 36005KT P6SM SCT020 BKN050
     FM022300 01010KT P6SM SCT050
     FM030300 02004KT P6SM SKC=

USA.gov is the U.S. government's official web portal to all federal, state and local government web resources and services.